Honey Island, Texas
Current Conditions -  °F | °C
As of 5:35 AM on Thursday 27 Nov 2014 (Local Time) from KBMT Reporting Station
Clear Clear  
Wind Chill: 36°   Ceiling: Unl
Heat Index: 39°   Visibility: 10mi
Dew Point: 38°   Wind: 5mph
Humidity: 96%   Direction: 10°N
Pressure: 30.42"   Gusts: NA
Location:  30.3781°N, 94.3538°W
Report Text: KBMT 271135Z AUTO 01004KT 10SM CLR 04/03 A3042 RMK AO2 T00400034
Loading
Personal Weather Stations






























Interactive Weather Map New forecast layout! Learn more

10-Day Weather Forecast

Advertisements
Track Severe Weather on mobile